sensor_id;sensor_type;location;lat;lon;timestamp;temperature;humidity
11983;DHT22;72623;51.184;7.176;2024-03-08T00:01:41;4.90;43.80
11983;DHT22;72623;51.184;7.176;2024-03-08T00:04:10;4.90;43.90
11983;DHT22;72623;51.184;7.176;2024-03-08T00:06:37;4.90;42.90
11983;DHT22;72623;51.184;7.176;2024-03-08T00:09:05;4.80;42.40
11983;DHT22;72623;51.184;7.176;2024-03-08T00:11:33;4.80;43.30
11983;DHT22;72623;51.184;7.176;2024-03-08T00:14:01;4.80;42.70
11983;DHT22;72623;51.184;7.176;2024-03-08T00:16:33;4.80;43.30
11983;DHT22;72623;51.184;7.176;2024-03-08T00:19:00;4.80;44.00
11983;DHT22;72623;51.184;7.176;2024-03-08T00:21:27;4.80;44.20
11983;DHT22;72623;51.184;7.176;2024-03-08T00:23:56;4.80;43.40
11983;DHT22;72623;51.184;7.176;2024-03-08T00:26:26;4.70;43.40
11983;DHT22;72623;51.184;7.176;2024-03-08T00:29:08;4.70;43.60
11983;DHT22;72623;51.184;7.176;2024-03-08T00:31:45;4.70;43.70
11983;DHT22;72623;51.184;7.176;2024-03-08T00:34:17;4.70;42.90
11983;DHT22;72623;51.184;7.176;2024-03-08T00:36:47;4.80;42.10
11983;DHT22;72623;51.184;7.176;2024-03-08T00:39:29;4.70;42.20
11983;DHT22;72623;51.184;7.176;2024-03-08T00:42:03;4.60;43.70
11983;DHT22;72623;51.184;7.176;2024-03-08T00:44:33;4.60;43.60
11983;DHT22;72623;51.184;7.176;2024-03-08T00:47:00;4.60;44.10
11983;DHT22;72623;51.184;7.176;2024-03-08T00:49:28;4.60;43.70
11983;DHT22;72623;51.184;7.176;2024-03-08T00:51:55;4.60;44.40
11983;DHT22;72623;51.184;7.176;2024-03-08T00:54:23;4.60;43.90
11983;DHT22;72623;51.184;7.176;2024-03-08T00:56:50;4.50;44.40
11983;DHT22;72623;51.184;7.176;2024-03-08T00:59:16;4.60;44.10
11983;DHT22;72623;51.184;7.176;2024-03-08T01:01:46;4.50;44.30
11983;DHT22;72623;51.184;7.176;2024-03-08T01:04:13;4.60;44.40
11983;DHT22;72623;51.184;7.176;2024-03-08T01:06:42;4.60;45.00
11983;DHT22;72623;51.184;7.176;2024-03-08T01:09:15;4.60;45.40
11983;DHT22;72623;51.184;7.176;2024-03-08T01:15:35;4.60;45.20
11983;DHT22;72623;51.184;7.176;2024-03-08T01:18:10;4.50;44.20
11983;DHT22;72623;51.184;7.176;2024-03-08T01:20:45;4.40;45.10
11983;DHT22;72623;51.184;7.176;2024-03-08T01:23:28;4.50;46.20
11983;DHT22;72623;51.184;7.176;2024-03-08T01:26:08;4.50;46.30
11983;DHT22;72623;51.184;7.176;2024-03-08T01:28:57;4.40;45.60
11983;DHT22;72623;51.184;7.176;2024-03-08T01:31:45;4.40;46.80
11983;DHT22;72623;51.184;7.176;2024-03-08T01:34:27;4.40;47.00
11983;DHT22;72623;51.184;7.176;2024-03-08T01:37:05;4.50;46.50
11983;DHT22;72623;51.184;7.176;2024-03-08T01:39:35;4.40;46.70
11983;DHT22;72623;51.184;7.176;2024-03-08T01:42:02;4.40;46.90
11983;DHT22;72623;51.184;7.176;2024-03-08T01:44:31;4.40;47.00
11983;DHT22;72623;51.184;7.176;2024-03-08T01:47:04;4.40;47.20
11983;DHT22;72623;51.184;7.176;2024-03-08T01:49:32;4.50;46.60
11983;DHT22;72623;51.184;7.176;2024-03-08T01:52:01;4.40;46.90
11983;DHT22;72623;51.184;7.176;2024-03-08T01:54:28;4.40;47.50
11983;DHT22;72623;51.184;7.176;2024-03-08T01:56:56;4.40;47.80
11983;DHT22;72623;51.184;7.176;2024-03-08T01:59:27;4.40;48.10
11983;DHT22;72623;51.184;7.176;2024-03-08T02:02:01;4.30;48.40
11983;DHT22;72623;51.184;7.176;2024-03-08T02:04:29;4.30;49.00
11983;DHT22;72623;51.184;7.176;2024-03-08T02:06:59;4.30;47.70
11983;DHT22;72623;51.184;7.176;2024-03-08T02:09:25;4.30;47.10
11983;DHT22;72623;51.184;7.176;2024-03-08T02:11:52;4.30;48.10
11983;DHT22;72623;51.184;7.176;2024-03-08T02:14:20;4.40;48.00
11983;DHT22;72623;51.184;7.176;2024-03-08T02:16:47;4.30;47.70
11983;DHT22;72623;51.184;7.176;2024-03-08T02:19:19;4.40;48.00
11983;DHT22;72623;51.184;7.176;2024-03-08T02:21:51;4.40;46.80
11983;DHT22;72623;51.184;7.176;2024-03-08T02:24:18;4.40;46.60
11983;DHT22;72623;51.184;7.176;2024-03-08T02:26:45;4.30;46.50
11983;DHT22;72623;51.184;7.176;2024-03-08T02:29:12;4.30;46.40
11983;DHT22;72623;51.184;7.176;2024-03-08T02:31:40;4.30;46.30
11983;DHT22;72623;51.184;7.176;2024-03-08T02:34:15;4.30;46.00
11983;DHT22;72623;51.184;7.176;2024-03-08T02:37:01;4.30;47.10
11983;DHT22;72623;51.184;7.176;2024-03-08T02:39:34;4.30;47.00
11983;DHT22;72623;51.184;7.176;2024-03-08T02:42:09;4.30;46.90
11983;DHT22;72623;51.184;7.176;2024-03-08T02:44:36;4.30;45.90
11983;DHT22;72623;51.184;7.176;2024-03-08T02:47:03;4.30;46.50
11983;DHT22;72623;51.184;7.176;2024-03-08T02:49:32;4.30;46.10
11983;DHT22;72623;51.184;7.176;2024-03-08T02:51:59;4.40;46.50
11983;DHT22;72623;51.184;7.176;2024-03-08T02:54:27;4.40;46.10
11983;DHT22;72623;51.184;7.176;2024-03-08T02:56:54;4.40;45.70
11983;DHT22;72623;51.184;7.176;2024-03-08T02:59:21;4.30;45.20
11983;DHT22;72623;51.184;7.176;2024-03-08T03:01:49;4.30;44.90
11983;DHT22;72623;51.184;7.176;2024-03-08T03:04:16;4.30;45.60
11983;DHT22;72623;51.184;7.176;2024-03-08T03:06:43;4.30;46.10
11983;DHT22;72623;51.184;7.176;2024-03-08T03:09:14;4.30;45.80
11983;DHT22;72623;51.184;7.176;2024-03-08T03:11:44;4.30;45.40
11983;DHT22;72623;51.184;7.176;2024-03-08T03:14:14;4.30;45.00
11983;DHT22;72623;51.184;7.176;2024-03-08T03:16:41;4.30;45.80
11983;DHT22;72623;51.184;7.176;2024-03-08T03:19:09;4.30;46.20
11983;DHT22;72623;51.184;7.176;2024-03-08T03:21:36;4.30;46.10
11983;DHT22;72623;51.184;7.176;2024-03-08T03:24:03;4.40;45.70
11983;DHT22;72623;51.184;7.176;2024-03-08T03:26:38;4.40;45.60
11983;DHT22;72623;51.184;7.176;2024-03-08T03:29:09;4.30;45.90
11983;DHT22;72623;51.184;7.176;2024-03-08T03:31:36;4.30;46.20
11983;DHT22;72623;51.184;7.176;2024-03-08T03:34:03;4.30;45.20
11983;DHT22;72623;51.184;7.176;2024-03-08T03:36:34;4.30;45.90
11983;DHT22;72623;51.184;7.176;2024-03-08T03:39:09;4.30;46.20
11983;DHT22;72623;51.184;7.176;2024-03-08T03:41:41;4.30;46.30
11983;DHT22;72623;51.184;7.176;2024-03-08T03:44:14;4.30;46.20
11983;DHT22;72623;51.184;7.176;2024-03-08T03:46:44;4.40;46.00
11983;DHT22;72623;51.184;7.176;2024-03-08T03:49:11;4.30;45.60
11983;DHT22;72623;51.184;7.176;2024-03-08T03:51:38;4.20;46.50
11983;DHT22;72623;51.184;7.176;2024-03-08T03:54:05;4.30;47.00
11983;DHT22;72623;51.184;7.176;2024-03-08T03:56:32;4.40;47.00
11983;DHT22;72623;51.184;7.176;2024-03-08T03:58:58;4.40;46.20
11983;DHT22;72623;51.184;7.176;2024-03-08T04:01:25;4.30;46.00
11983;DHT22;72623;51.184;7.176;2024-03-08T04:03:54;4.30;46.60
11983;DHT22;72623;51.184;7.176;2024-03-08T04:06:23;4.40;46.10
11983;DHT22;72623;51.184;7.176;2024-03-08T04:08:50;4.30;46.70
11983;DHT22;72623;51.184;7.176;2024-03-08T04:11:17;4.30;46.60
11983;DHT22;72623;51.184;7.176;2024-03-08T04:13:44;4.30;46.90
11983;DHT22;72623;51.184;7.176;2024-03-08T04:16:10;4.30;47.20
11983;DHT22;72623;51.184;7.176;2024-03-08T04:18:37;4.30;46.20
11983;DHT22;72623;51.184;7.176;2024-03-08T04:21:05;4.40;46.30
11983;DHT22;72623;51.184;7.176;2024-03-08T04:23:34;4.30;46.50
11983;DHT22;72623;51.184;7.176;2024-03-08T04:26:02;4.30;46.70
11983;DHT22;72623;51.184;7.176;2024-03-08T04:28:31;4.30;46.80
11983;DHT22;72623;51.184;7.176;2024-03-08T04:30:58;4.30;47.20
11983;DHT22;72623;51.184;7.176;2024-03-08T04:33:26;4.30;46.80
11983;DHT22;72623;51.184;7.176;2024-03-08T04:35:53;4.30;47.30
11983;DHT22;72623;51.184;7.176;2024-03-08T04:38:20;4.30;47.20
11983;DHT22;72623;51.184;7.176;2024-03-08T04:40:48;4.30;48.00
11983;DHT22;72623;51.184;7.176;2024-03-08T04:43:15;4.30;47.80
11983;DHT22;72623;51.184;7.176;2024-03-08T04:45:44;4.30;47.70
11983;DHT22;72623;51.184;7.176;2024-03-08T04:48:11;4.30;48.30
11983;DHT22;72623;51.184;7.176;2024-03-08T04:50:38;4.30;48.00
11983;DHT22;72623;51.184;7.176;2024-03-08T04:53:05;4.30;48.40
11983;DHT22;72623;51.184;7.176;2024-03-08T04:55:34;4.30;48.00
11983;DHT22;72623;51.184;7.176;2024-03-08T04:58:03;4.40;49.20
11983;DHT22;72623;51.184;7.176;2024-03-08T05:00:31;4.40;48.30
11983;DHT22;72623;51.184;7.176;2024-03-08T05:03:10;4.30;48.60
11983;DHT22;72623;51.184;7.176;2024-03-08T05:05:37;4.30;49.30
11983;DHT22;72623;51.184;7.176;2024-03-08T05:08:04;4.30;49.20
11983;DHT22;72623;51.184;7.176;2024-03-08T05:10:31;4.40;49.30
11983;DHT22;72623;51.184;7.176;2024-03-08T05:12:58;4.40;48.40
11983;DHT22;72623;51.184;7.176;2024-03-08T05:15:25;4.40;49.20
11983;DHT22;72623;51.184;7.176;2024-03-08T05:17:52;4.30;49.40
11983;DHT22;72623;51.184;7.176;2024-03-08T05:20:19;4.30;49.90
11983;DHT22;72623;51.184;7.176;2024-03-08T05:22:47;4.30;50.20
11983;DHT22;72623;51.184;7.176;2024-03-08T05:25:16;4.30;50.40
11983;DHT22;72623;51.184;7.176;2024-03-08T05:27:43;4.30;50.40
11983;DHT22;72623;51.184;7.176;2024-03-08T05:30:10;4.30;49.80
11983;DHT22;72623;51.184;7.176;2024-03-08T05:32:41;4.30;50.40
11983;DHT22;72623;51.184;7.176;2024-03-08T05:35:10;4.40;50.70
11983;DHT22;72623;51.184;7.176;2024-03-08T05:37:38;4.30;50.90
11983;DHT22;72623;51.184;7.176;2024-03-08T05:40:09;4.30;50.60
11983;DHT22;72623;51.184;7.176;2024-03-08T05:42:50;4.40;50.10
11983;DHT22;72623;51.184;7.176;2024-03-08T05:45:16;4.40;50.40
11983;DHT22;72623;51.184;7.176;2024-03-08T05:47:43;4.30;50.80
11983;DHT22;72623;51.184;7.176;2024-03-08T05:50:11;4.30;50.50
11983;DHT22;72623;51.184;7.176;2024-03-08T05:52:40;4.20;51.20
11983;DHT22;72623;51.184;7.176;2024-03-08T05:55:07;4.20;51.40
11983;DHT22;72623;51.184;7.176;2024-03-08T05:57:35;4.20;51.90
11983;DHT22;72623;51.184;7.176;2024-03-08T06:00:05;4.20;52.00
11983;DHT22;72623;51.184;7.176;2024-03-08T06:02:32;4.20;52.80
11983;DHT22;72623;51.184;7.176;2024-03-08T06:04:59;4.30;53.20
11983;DHT22;72623;51.184;7.176;2024-03-08T06:07:27;4.30;53.00
11983;DHT22;72623;51.184;7.176;2024-03-08T06:09:55;4.30;52.80
11983;DHT22;72623;51.184;7.176;2024-03-08T06:12:22;4.30;52.80
11983;DHT22;72623;51.184;7.176;2024-03-08T06:14:54;4.30;53.10
11983;DHT22;72623;51.184;7.176;2024-03-08T06:17:21;4.30;53.30
11983;DHT22;72623;51.184;7.176;2024-03-08T06:19:52;4.20;53.80
11983;DHT22;72623;51.184;7.176;2024-03-08T06:22:20;4.20;54.00
11983;DHT22;72623;51.184;7.176;2024-03-08T06:24:46;4.30;54.80
11983;DHT22;72623;51.184;7.176;2024-03-08T06:27:14;4.30;54.00
11983;DHT22;72623;51.184;7.176;2024-03-08T06:29:40;4.40;54.30
11983;DHT22;72623;51.184;7.176;2024-03-08T06:32:07;4.70;54.70
11983;DHT22;72623;51.184;7.176;2024-03-08T06:34:34;5.00;53.50
11983;DHT22;72623;51.184;7.176;2024-03-08T06:37:01;5.10;52.60
11983;DHT22;72623;51.184;7.176;2024-03-08T06:39:28;5.30;50.90
11983;DHT22;72623;51.184;7.176;2024-03-08T06:41:57;5.40;50.30
11983;DHT22;72623;51.184;7.176;2024-03-08T06:44:25;5.40;49.20
11983;DHT22;72623;51.184;7.176;2024-03-08T06:46:52;5.40;48.70
11983;DHT22;72623;51.184;7.176;2024-03-08T06:49:19;5.50;48.00
11983;DHT22;72623;51.184;7.176;2024-03-08T06:51:45;5.50;47.70
11983;DHT22;72623;51.184;7.176;2024-03-08T06:54:12;5.50;48.30
11983;DHT22;72623;51.184;7.176;2024-03-08T06:56:39;5.50;48.80
11983;DHT22;72623;51.184;7.176;2024-03-08T07:02:06;5.50;48.10
11983;DHT22;72623;51.184;7.176;2024-03-08T07:04:34;5.40;49.50
11983;DHT22;72623;51.184;7.176;2024-03-08T07:07:06;5.40;50.10
11983;DHT22;72623;51.184;7.176;2024-03-08T07:09:35;5.40;50.40
11983;DHT22;72623;51.184;7.176;2024-03-08T07:12:02;5.50;49.70
11983;DHT22;72623;51.184;7.176;2024-03-08T07:14:29;5.40;50.00
11983;DHT22;72623;51.184;7.176;2024-03-08T07:16:56;5.40;50.10
11983;DHT22;72623;51.184;7.176;2024-03-08T07:19:23;5.40;49.70
11983;DHT22;72623;51.184;7.176;2024-03-08T07:21:50;5.40;50.40
11983;DHT22;72623;51.184;7.176;2024-03-08T07:24:17;5.40;50.60
11983;DHT22;72623;51.184;7.176;2024-03-08T07:27:04;5.40;51.00
11983;DHT22;72623;51.184;7.176;2024-03-08T07:29:32;5.50;50.10
11983;DHT22;72623;51.184;7.176;2024-03-08T07:31:59;5.40;50.40
11983;DHT22;72623;51.184;7.176;2024-03-08T07:34:38;5.50;50.60
11983;DHT22;72623;51.184;7.176;2024-03-08T07:37:12;5.60;51.50
11983;DHT22;72623;51.184;7.176;2024-03-08T07:39:39;5.70;51.00
11983;DHT22;72623;51.184;7.176;2024-03-08T07:42:06;5.70;49.70
11983;DHT22;72623;51.184;7.176;2024-03-08T07:44:33;5.80;49.60
11983;DHT22;72623;51.184;7.176;2024-03-08T07:46:59;5.90;49.70
11983;DHT22;72623;51.184;7.176;2024-03-08T07:49:26;6.00;50.30
11983;DHT22;72623;51.184;7.176;2024-03-08T07:51:53;6.10;48.70
11983;DHT22;72623;51.184;7.176;2024-03-08T07:54:20;6.10;47.00
11983;DHT22;72623;51.184;7.176;2024-03-08T07:56:46;6.20;48.30
11983;DHT22;72623;51.184;7.176;2024-03-08T07:59:13;6.30;48.00
11983;DHT22;72623;51.184;7.176;2024-03-08T08:01:40;6.40;47.60
11983;DHT22;72623;51.184;7.176;2024-03-08T08:04:07;6.40;45.40
11983;DHT22;72623;51.184;7.176;2024-03-08T08:06:38;6.40;45.40
11983;DHT22;72623;51.184;7.176;2024-03-08T08:09:07;6.50;45.50
11983;DHT22;72623;51.184;7.176;2024-03-08T08:11:43;6.50;46.40
11983;DHT22;72623;51.184;7.176;2024-03-08T08:14:10;6.60;44.70
11983;DHT22;72623;51.184;7.176;2024-03-08T08:16:37;6.80;44.70
11983;DHT22;72623;51.184;7.176;2024-03-08T08:19:06;6.90;43.30
11983;DHT22;72623;51.184;7.176;2024-03-08T08:21:36;6.90;43.80
11983;DHT22;72623;51.184;7.176;2024-03-08T08:24:04;7.20;42.70
11983;DHT22;72623;51.184;7.176;2024-03-08T08:26:31;7.40;42.90
11983;DHT22;72623;51.184;7.176;2024-03-08T08:29:02;7.70;43.00
11983;DHT22;72623;51.184;7.176;2024-03-08T08:31:28;7.80;40.00
11983;DHT22;72623;51.184;7.176;2024-03-08T08:33:56;7.90;40.00
11983;DHT22;72623;51.184;7.176;2024-03-08T08:36:25;8.00;37.60
11983;DHT22;72623;51.184;7.176;2024-03-08T08:38:53;8.20;38.40
11983;DHT22;72623;51.184;7.176;2024-03-08T08:41:21;8.40;37.80
11983;DHT22;72623;51.184;7.176;2024-03-08T08:43:48;8.70;34.90
11983;DHT22;72623;51.184;7.176;2024-03-08T08:46:18;8.80;35.20
11983;DHT22;72623;51.184;7.176;2024-03-08T08:48:46;8.90;32.80
11983;DHT22;72623;51.184;7.176;2024-03-08T08:51:13;9.20;34.40
11983;DHT22;72623;51.184;7.176;2024-03-08T08:53:41;9.30;30.60
11983;DHT22;72623;51.184;7.176;2024-03-08T08:56:12;9.40;31.00
11983;DHT22;72623;51.184;7.176;2024-03-08T08:58:40;9.50;30.00
11983;DHT22;72623;51.184;7.176;2024-03-08T09:01:11;9.40;30.70
11983;DHT22;72623;51.184;7.176;2024-03-08T09:03:38;9.30;29.40
11983;DHT22;72623;51.184;7.176;2024-03-08T09:06:06;9.10;29.20
11983;DHT22;72623;51.184;7.176;2024-03-08T09:08:38;9.10;30.40
11983;DHT22;72623;51.184;7.176;2024-03-08T09:11:05;9.10;30.80
11983;DHT22;72623;51.184;7.176;2024-03-08T09:13:32;9.00;29.50
11983;DHT22;72623;51.184;7.176;2024-03-08T09:16:00;8.90;28.90
11983;DHT22;72623;51.184;7.176;2024-03-08T09:18:26;8.90;29.80
11983;DHT22;72623;51.184;7.176;2024-03-08T09:20:53;8.90;29.20
11983;DHT22;72623;51.184;7.176;2024-03-08T09:23:20;8.90;28.50
11983;DHT22;72623;51.184;7.176;2024-03-08T09:25:47;8.80;28.90
11983;DHT22;72623;51.184;7.176;2024-03-08T09:28:14;8.90;29.10
11983;DHT22;72623;51.184;7.176;2024-03-08T09:30:41;8.80;27.50
11983;DHT22;72623;51.184;7.176;2024-03-08T09:33:09;8.80;28.60
11983;DHT22;72623;51.184;7.176;2024-03-08T09:35:37;8.90;28.80
11983;DHT22;72623;51.184;7.176;2024-03-08T09:38:03;9.00;28.40
11983;DHT22;72623;51.184;7.176;2024-03-08T09:40:30;8.90;27.20
11983;DHT22;72623;51.184;7.176;2024-03-08T09:42:57;9.00;28.00
11983;DHT22;72623;51.184;7.176;2024-03-08T09:45:24;9.00;28.00
11983;DHT22;72623;51.184;7.176;2024-03-08T09:47:52;9.10;26.60
11983;DHT22;72623;51.184;7.176;2024-03-08T09:50:19;9.00;26.20
11983;DHT22;72623;51.184;7.176;2024-03-08T09:52:48;9.00;27.30
11983;DHT22;72623;51.184;7.176;2024-03-08T09:55:16;9.00;27.40
11983;DHT22;72623;51.184;7.176;2024-03-08T09:57:48;9.10;27.10
11983;DHT22;72623;51.184;7.176;2024-03-08T10:00:29;9.10;25.80
11983;DHT22;72623;51.184;7.176;2024-03-08T10:03:01;9.10;26.50
11983;DHT22;72623;51.184;7.176;2024-03-08T10:05:28;9.30;26.60
11983;DHT22;72623;51.184;7.176;2024-03-08T10:07:55;9.40;25.80
11983;DHT22;72623;51.184;7.176;2024-03-08T10:10:21;9.40;25.30
11983;DHT22;72623;51.184;7.176;2024-03-08T10:12:48;9.50;25.20
11983;DHT22;72623;51.184;7.176;2024-03-08T10:15:16;9.40;24.90
11983;DHT22;72623;51.184;7.176;2024-03-08T10:17:43;9.50;23.80
11983;DHT22;72623;51.184;7.176;2024-03-08T10:20:18;9.50;23.70
11983;DHT22;72623;51.184;7.176;2024-03-08T10:22:46;9.60;23.90
11983;DHT22;72623;51.184;7.176;2024-03-08T10:25:13;9.60;22.60
11983;DHT22;72623;51.184;7.176;2024-03-08T10:27:41;9.60;22.00
11983;DHT22;72623;51.184;7.176;2024-03-08T10:30:14;9.50;21.60
11983;DHT22;72623;51.184;7.176;2024-03-08T10:32:41;9.60;23.20
11983;DHT22;72623;51.184;7.176;2024-03-08T10:35:08;9.60;21.70
11983;DHT22;72623;51.184;7.176;2024-03-08T10:37:46;9.60;22.30
11983;DHT22;72623;51.184;7.176;2024-03-08T10:40:16;9.60;22.40
11983;DHT22;72623;51.184;7.176;2024-03-08T10:42:57;9.70;22.30
11983;DHT22;72623;51.184;7.176;2024-03-08T10:45:37;9.80;21.70
11983;DHT22;72623;51.184;7.176;2024-03-08T10:48:29;9.80;20.30
11983;DHT22;72623;51.184;7.176;2024-03-08T10:51:02;9.80;20.10
11983;DHT22;72623;51.184;7.176;2024-03-08T10:53:29;9.80;21.40
11983;DHT22;72623;51.184;7.176;2024-03-08T10:55:57;9.90;19.80
11983;DHT22;72623;51.184;7.176;2024-03-08T10:58:29;9.80;19.60
11983;DHT22;72623;51.184;7.176;2024-03-08T11:00:57;9.90;19.70
11983;DHT22;72623;51.184;7.176;2024-03-08T11:03:45;9.90;21.10
11983;DHT22;72623;51.184;7.176;2024-03-08T11:07:03;10.10;19.70
11983;DHT22;72623;51.184;7.176;2024-03-08T11:09:27;10.00;17.40
11983;DHT22;72623;51.184;7.176;2024-03-08T11:12:18;10.00;19.30
11983;DHT22;72623;51.184;7.176;2024-03-08T11:14:46;10.20;20.20
11983;DHT22;72623;51.184;7.176;2024-03-08T11:17:16;10.20;18.20
11983;DHT22;72623;51.184;7.176;2024-03-08T11:19:50;10.20;16.60
11983;DHT22;72623;51.184;7.176;2024-03-08T11:22:21;10.10;16.40
11983;DHT22;72623;51.184;7.176;2024-03-08T11:24:50;10.20;17.90
11983;DHT22;72623;51.184;7.176;2024-03-08T11:27:17;10.20;16.80
11983;DHT22;72623;51.184;7.176;2024-03-08T11:30:06;10.20;17.30
11983;DHT22;72623;51.184;7.176;2024-03-08T11:32:37;10.30;16.10
11983;DHT22;72623;51.184;7.176;2024-03-08T11:35:20;10.30;16.90
11983;DHT22;72623;51.184;7.176;2024-03-08T11:37:48;10.20;14.60
11983;DHT22;72623;51.184;7.176;2024-03-08T11:40:16;10.20;14.70
11983;DHT22;72623;51.184;7.176;2024-03-08T11:42:48;10.20;15.20
11983;DHT22;72623;51.184;7.176;2024-03-08T11:45:17;10.30;15.20
11983;DHT22;72623;51.184;7.176;2024-03-08T11:47:46;10.30;14.20
11983;DHT22;72623;51.184;7.176;2024-03-08T11:50:14;10.30;14.70
11983;DHT22;72623;51.184;7.176;2024-03-08T11:52:41;10.30;15.10
11983;DHT22;72623;51.184;7.176;2024-03-08T11:55:09;10.20;15.20
11983;DHT22;72623;51.184;7.176;2024-03-08T11:57:38;10.30;14.90
11983;DHT22;72623;51.184;7.176;2024-03-08T12:00:05;10.40;14.20
11983;DHT22;72623;51.184;7.176;2024-03-08T12:02:33;10.40;12.90
11983;DHT22;72623;51.184;7.176;2024-03-08T12:05:04;10.40;14.10
11983;DHT22;72623;51.184;7.176;2024-03-08T12:07:34;10.40;14.20
11983;DHT22;72623;51.184;7.176;2024-03-08T12:10:18;10.40;12.60
11983;DHT22;72623;51.184;7.176;2024-03-08T12:12:48;10.50;12.30
11983;DHT22;72623;51.184;7.176;2024-03-08T12:15:18;10.60;13.10
11983;DHT22;72623;51.184;7.176;2024-03-08T12:17:52;10.60;11.60
11983;DHT22;72623;51.184;7.176;2024-03-08T12:20:25;10.70;10.50
11983;DHT22;72623;51.184;7.176;2024-03-08T12:22:55;10.50;9.70
11983;DHT22;72623;51.184;7.176;2024-03-08T12:25:32;10.40;9.70
11983;DHT22;72623;51.184;7.176;2024-03-08T12:28:11;10.20;9.20
11983;DHT22;72623;51.184;7.176;2024-03-08T12:30:46;10.30;11.80
11983;DHT22;72623;51.184;7.176;2024-03-08T12:33:13;10.40;10.30
11983;DHT22;72623;51.184;7.176;2024-03-08T12:35:40;10.40;9.80
11983;DHT22;72623;51.184;7.176;2024-03-08T12:38:08;10.40;10.10
11983;DHT22;72623;51.184;7.176;2024-03-08T12:40:34;10.40;8.20
11983;DHT22;72623;51.184;7.176;2024-03-08T12:43:06;10.40;8.20
11983;DHT22;72623;51.184;7.176;2024-03-08T12:45:33;10.40;8.60
11983;DHT22;72623;51.184;7.176;2024-03-08T12:47:59;10.50;9.70
11983;DHT22;72623;51.184;7.176;2024-03-08T12:50:28;10.60;8.30
11983;DHT22;72623;51.184;7.176;2024-03-08T12:52:55;10.60;8.20
11983;DHT22;72623;51.184;7.176;2024-03-08T12:55:22;10.60;8.20
11983;DHT22;72623;51.184;7.176;2024-03-08T12:57:49;10.60;7.10
11983;DHT22;72623;51.184;7.176;2024-03-08T13:00:18;10.60;6.50
11983;DHT22;72623;51.184;7.176;2024-03-08T13:02:55;10.60;6.30
11983;DHT22;72623;51.184;7.176;2024-03-08T13:05:25;10.50;5.60
11983;DHT22;72623;51.184;7.176;2024-03-08T13:07:53;10.40;5.50
11983;DHT22;72623;51.184;7.176;2024-03-08T13:10:20;10.40;5.20
11983;DHT22;72623;51.184;7.176;2024-03-08T13:12:48;10.40;6.70
11983;DHT22;72623;51.184;7.176;2024-03-08T13:15:15;10.40;6.00
11983;DHT22;72623;51.184;7.176;2024-03-08T13:17:48;10.60;6.80
11983;DHT22;72623;51.184;7.176;2024-03-08T13:20:15;10.60;7.30
11983;DHT22;72623;51.184;7.176;2024-03-08T13:22:45;10.70;5.90
11983;DHT22;72623;51.184;7.176;2024-03-08T13:25:12;10.60;5.20
11983;DHT22;72623;51.184;7.176;2024-03-08T13:27:42;10.60;5.20
11983;DHT22;72623;51.184;7.176;2024-03-08T13:30:11;10.60;4.80
11983;DHT22;72623;51.184;7.176;2024-03-08T13:32:42;10.60;5.40
11983;DHT22;72623;51.184;7.176;2024-03-08T13:35:10;10.50;6.10
11983;DHT22;72623;51.184;7.176;2024-03-08T13:37:42;10.60;6.10
11983;DHT22;72623;51.184;7.176;2024-03-08T13:40:09;10.60;5.50
11983;DHT22;72623;51.184;7.176;2024-03-08T13:42:42;10.60;7.40
11983;DHT22;72623;51.184;7.176;2024-03-08T13:45:09;10.60;8.00
11983;DHT22;72623;51.184;7.176;2024-03-08T13:47:40;10.80;8.10
11983;DHT22;72623;51.184;7.176;2024-03-08T13:50:09;10.80;6.80
11983;DHT22;72623;51.184;7.176;2024-03-08T13:52:38;10.70;5.70
11983;DHT22;72623;51.184;7.176;2024-03-08T13:55:06;10.60;5.70
11983;DHT22;72623;51.184;7.176;2024-03-08T13:57:33;10.60;6.20
11983;DHT22;72623;51.184;7.176;2024-03-08T14:07:58;10.70;6.00
11983;DHT22;72623;51.184;7.176;2024-03-08T14:10:34;10.50;5.20
11983;DHT22;72623;51.184;7.176;2024-03-08T14:13:10;10.50;6.70
11983;DHT22;72623;51.184;7.176;2024-03-08T14:26:17;10.30;7.10
11983;DHT22;72623;51.184;7.176;2024-03-08T14:32:11;10.40;6.90
11983;DHT22;72623;51.184;7.176;2024-03-08T14:41:35;10.30;6.70
11983;DHT22;72623;51.184;7.176;2024-03-08T14:44:26;10.30;6.40
11983;DHT22;72623;51.184;7.176;2024-03-08T14:46:57;10.30;6.30
11983;DHT22;72623;51.184;7.176;2024-03-08T14:49:24;10.20;6.50
11983;DHT22;72623;51.184;7.176;2024-03-08T14:51:54;10.20;7.50
11983;DHT22;72623;51.184;7.176;2024-03-08T14:54:23;10.30;7.80
11983;DHT22;72623;51.184;7.176;2024-03-08T14:56:51;10.30;8.20
11983;DHT22;72623;51.184;7.176;2024-03-08T14:59:18;10.20;8.00
11983;DHT22;72623;51.184;7.176;2024-03-08T15:01:46;10.30;8.00
11983;DHT22;72623;51.184;7.176;2024-03-08T15:04:13;10.30;7.70
11983;DHT22;72623;51.184;7.176;2024-03-08T15:06:41;10.30;7.50
11983;DHT22;72623;51.184;7.176;2024-03-08T15:09:09;10.20;7.10
11983;DHT22;72623;51.184;7.176;2024-03-08T15:11:45;10.20;7.90
11983;DHT22;72623;51.184;7.176;2024-03-08T15:14:14;10.20;7.80
11983;DHT22;72623;51.184;7.176;2024-03-08T15:16:44;10.20;8.20
11983;DHT22;72623;51.184;7.176;2024-03-08T15:19:13;10.10;8.20
11983;DHT22;72623;51.184;7.176;2024-03-08T15:21:40;10.10;6.90
11983;DHT22;72623;51.184;7.176;2024-03-08T15:24:08;10.00;7.40
11983;DHT22;72623;51.184;7.176;2024-03-08T15:26:41;10.00;8.00
11983;DHT22;72623;51.184;7.176;2024-03-08T15:29:08;10.00;8.00
11983;DHT22;72623;51.184;7.176;2024-03-08T15:31:38;10.00;8.40
11983;DHT22;72623;51.184;7.176;2024-03-08T15:34:37;10.00;7.50
11983;DHT22;72623;51.184;7.176;2024-03-08T15:37:04;10.00;8.60
11983;DHT22;72623;51.184;7.176;2024-03-08T15:39:32;10.00;8.40
11983;DHT22;72623;51.184;7.176;2024-03-08T15:41:59;10.00;8.30
11983;DHT22;72623;51.184;7.176;2024-03-08T15:44:26;10.00;8.80
11983;DHT22;72623;51.184;7.176;2024-03-08T15:46:53;10.10;8.10
11983;DHT22;72623;51.184;7.176;2024-03-08T15:49:20;10.10;8.90
11983;DHT22;72623;51.184;7.176;2024-03-08T15:51:47;10.10;8.40
11983;DHT22;72623;51.184;7.176;2024-03-08T15:54:15;10.00;8.90
11983;DHT22;72623;51.184;7.176;2024-03-08T15:56:42;10.10;8.90
11983;DHT22;72623;51.184;7.176;2024-03-08T15:59:09;10.10;8.40
11983;DHT22;72623;51.184;7.176;2024-03-08T16:01:36;10.10;8.50
11983;DHT22;72623;51.184;7.176;2024-03-08T16:04:03;10.00;8.80
11983;DHT22;72623;51.184;7.176;2024-03-08T16:06:32;10.00;9.10
11983;DHT22;72623;51.184;7.176;2024-03-08T16:09:01;10.00;9.10
11983;DHT22;72623;51.184;7.176;2024-03-08T16:11:28;10.00;9.10
11983;DHT22;72623;51.184;7.176;2024-03-08T16:14:02;10.00;10.20
11983;DHT22;72623;51.184;7.176;2024-03-08T16:16:29;10.00;9.90
11983;DHT22;72623;51.184;7.176;2024-03-08T16:18:57;10.00;10.30
11983;DHT22;72623;51.184;7.176;2024-03-08T16:21:24;10.00;10.20
11983;DHT22;72623;51.184;7.176;2024-03-08T16:23:51;10.00;9.20
11983;DHT22;72623;51.184;7.176;2024-03-08T16:26:19;10.00;9.80
11983;DHT22;72623;51.184;7.176;2024-03-08T16:28:48;9.90;9.90
11983;DHT22;72623;51.184;7.176;2024-03-08T16:31:15;9.90;10.90
11983;DHT22;72623;51.184;7.176;2024-03-08T16:33:41;9.90;10.20
11983;DHT22;72623;51.184;7.176;2024-03-08T16:36:09;9.80;10.50